createdAt,value
2017-01-07T00:00:50.263Z,-3.33
2017-01-07T00:02:01.659Z,-3.24
2017-01-07T00:03:13.063Z,-3.21
2017-01-07T00:04:24.449Z,-3.22
2017-01-07T00:05:35.842Z,-3.21
2017-01-07T00:06:47.281Z,-3.21
2017-01-07T00:07:58.673Z,-3.24
2017-01-07T00:09:10.067Z,-3.15
2017-01-07T00:10:21.466Z,-3.25
2017-01-07T00:11:32.866Z,-3.25
2017-01-07T00:12:44.312Z,-3.28
2017-01-07T00:13:55.705Z,-3.24
2017-01-07T00:15:07.110Z,-3.15
2017-01-07T00:16:18.730Z,-3.18
2017-01-07T00:17:30.124Z,-3.3
2017-01-07T00:18:41.569Z,-3.18
2017-01-07T00:19:52.972Z,-3.09
2017-01-07T00:21:04.362Z,-3.11
2017-01-07T00:22:15.955Z,-3.11
2017-01-07T00:23:27.347Z,-3.09
2017-01-07T00:24:38.788Z,-3.11
2017-01-07T00:25:50.181Z,-3.11
2017-01-07T00:27:01.780Z,-3.14
2017-01-07T00:28:13.174Z,-3.06
2017-01-07T00:29:24.563Z,-3.12
2017-01-07T00:30:36.007Z,-3.07
2017-01-07T00:31:47.398Z,-3.07
2017-01-07T00:32:58.990Z,-3.07
2017-01-07T00:34:10.390Z,-3.04
2017-01-07T00:35:21.789Z,-3.09
2017-01-07T00:36:33.441Z,-3.07
2017-01-07T00:37:44.839Z,-3.04
2017-01-07T00:38:56.442Z,-3.06
2017-01-07T00:40:08.044Z,-3.03
2017-01-07T00:41:19.436Z,-2.97
2017-01-07T00:42:30.880Z,-2.99
2017-01-07T00:43:42.274Z,-3
2017-01-07T00:44:53.873Z,-3.06
2017-01-07T00:46:05.269Z,-2.97
2017-01-07T00:47:16.671Z,-3.03
2017-01-07T00:48:28.112Z,-3.07
2017-01-07T00:49:39.509Z,-3.07
2017-01-07T00:50:50.899Z,-3.06
2017-01-07T00:52:02.296Z,-3.12
2017-01-07T00:53:13.699Z,-3.09
2017-01-07T00:54:25.151Z,-3.14
2017-01-07T00:55:36.546Z,-3.06
2017-01-07T00:56:47.948Z,-3.09
2017-01-07T00:57:59.347Z,-3.04
2017-01-07T00:59:10.752Z,-3.04
2017-01-07T01:00:22.147Z,-2.93
2017-01-07T01:01:33.743Z,-2.91
2017-01-07T01:02:45.141Z,-2.93
2017-01-07T01:03:56.540Z,-2.94
2017-01-07T01:05:07.979Z,-2.91
2017-01-07T01:06:19.579Z,-2.9
2017-01-07T01:07:30.973Z,-2.86
2017-01-07T01:08:42.371Z,-2.88
2017-01-07T01:09:53.977Z,-2.86
2017-01-07T01:11:05.627Z,-2.96
2017-01-07T01:12:17.030Z,-2.93
2017-01-07T01:13:28.434Z,-2.9
2017-01-07T01:14:39.833Z,-2.78
2017-01-07T01:15:51.225Z,-2.91
2017-01-07T01:17:02.665Z,-2.9
2017-01-07T01:18:14.065Z,-2.91
2017-01-07T01:19:25.658Z,-2.97
2017-01-07T01:20:37.049Z,-2.91
2017-01-07T01:21:48.465Z,-2.99
2017-01-07T01:23:00.136Z,-2.99
2017-01-07T01:24:11.570Z,-2.93
2017-01-07T01:25:22.959Z,-2.93
2017-01-07T01:26:34.551Z,-2.93
2017-01-07T01:27:45.946Z,-2.9
2017-01-07T01:28:57.590Z,-2.91
2017-01-07T01:30:09.389Z,-2.81
2017-01-07T01:31:20.807Z,-2.79
2017-01-07T01:32:32.207Z,-2.81
2017-01-07T01:33:43.603Z,-2.94
2017-01-07T01:34:55.050Z,-2.93
2017-01-07T01:36:06.449Z,-2.9
2017-01-07T01:37:18.051Z,-2.96
2017-01-07T01:38:29.447Z,-2.91
2017-01-07T01:39:40.840Z,-2.81
2017-01-07T01:40:52.240Z,-2.82
2017-01-07T01:42:03.637Z,-2.76
2017-01-07T01:43:15.445Z,-2.83
2017-01-07T01:44:27.054Z,-2.83
2017-01-07T01:45:38.737Z,-2.82
2017-01-07T01:46:50.139Z,-2.79
2017-01-07T01:48:01.740Z,-2.82
2017-01-07T01:49:13.138Z,-2.76
2017-01-07T01:50:24.528Z,-2.73
2017-01-07T01:51:35.968Z,-2.76
2017-01-07T01:52:47.365Z,-2.79
2017-01-07T01:53:58.763Z,-2.81
2017-01-07T01:55:10.165Z,-2.81
2017-01-07T01:56:21.561Z,-2.79
2017-01-07T01:57:33.209Z,-2.7
2017-01-07T01:58:44.592Z,-2.79
2017-01-07T01:59:55.985Z,-2.76
2017-01-07T02:01:07.613Z,-2.78
2017-01-07T02:02:19.013Z,-2.73
2017-01-07T02:03:30.465Z,-2.73
2017-01-07T02:04:41.856Z,-2.73
2017-01-07T02:05:53.285Z,-2.76
2017-01-07T02:07:04.710Z,-2.68
2017-01-07T02:08:16.111Z,-2.75
2017-01-07T02:09:27.560Z,-2.73
2017-01-07T02:10:38.953Z,-2.75
2017-01-07T02:11:50.344Z,-2.75
2017-01-07T02:13:01.738Z,-2.76
2017-01-07T02:14:13.135Z,-2.67
2017-01-07T02:15:24.796Z,-2.61
2017-01-07T02:16:36.194Z,-2.6
2017-01-07T02:17:47.595Z,-2.6
2017-01-07T02:18:58.990Z,-2.54
2017-01-07T02:20:10.387Z,-2.64
2017-01-07T02:21:21.836Z,-2.43
2017-01-07T02:22:33.424Z,-2.58
2017-01-07T02:23:44.821Z,-2.62
2017-01-07T02:24:56.218Z,-2.57
2017-01-07T02:26:07.614Z,-2.58
2017-01-07T02:27:19.063Z,-2.57
2017-01-07T02:28:30.466Z,-2.54
2017-01-07T02:29:41.854Z,-2.62
2017-01-07T02:30:53.256Z,-2.57
2017-01-07T02:32:04.653Z,-2.57
2017-01-07T02:33:16.103Z,-2.54
2017-01-07T02:34:27.511Z,-2.49
2017-01-07T02:35:38.907Z,-2.53
2017-01-07T02:36:50.302Z,-2.58
2017-01-07T02:38:01.704Z,-2.58
2017-01-07T02:39:13.549Z,-2.65
2017-01-07T02:40:24.950Z,-2.65
2017-01-07T02:41:36.345Z,-2.54
2017-01-07T02:42:47.948Z,-2.58
2017-01-07T02:43:59.542Z,-2.57
2017-01-07T02:45:11.197Z,-2.62
2017-01-07T02:46:22.591Z,-2.53
2017-01-07T02:47:33.975Z,-2.53
2017-01-07T02:48:45.361Z,-2.55
2017-01-07T02:49:56.755Z,-2.5
2017-01-07T02:51:08.403Z,-2.49
2017-01-07T02:52:19.803Z,-2.44
2017-01-07T02:53:31.200Z,-2.53
2017-01-07T02:54:42.601Z,-2.54
2017-01-07T02:55:54.005Z,-2.47
2017-01-07T02:57:05.654Z,-2.54
2017-01-07T02:58:17.043Z,-2.46
2017-01-07T02:59:28.430Z,-2.5
2017-01-07T03:00:40.032Z,-2.57
2017-01-07T03:01:51.457Z,-2.54
2017-01-07T03:03:02.902Z,-2.58
2017-01-07T03:04:14.299Z,-2.47
2017-01-07T03:05:25.686Z,-2.46
2017-01-07T03:06:37.082Z,-2.42
2017-01-07T03:07:48.682Z,-2.46
2017-01-07T03:09:00.127Z,-2.47
2017-01-07T03:10:11.535Z,-2.53
2017-01-07T03:11:22.933Z,-2.5
2017-01-07T03:12:34.333Z,-2.4
2017-01-07T03:13:45.726Z,-2.53
2017-01-07T03:14:57.174Z,-2.34
2017-01-07T03:16:08.573Z,-2.47
2017-01-07T03:17:19.981Z,-2.4
2017-01-07T03:18:31.389Z,-2.37
2017-01-07T03:19:42.790Z,-2.4
2017-01-07T03:20:54.194Z,-2.42
2017-01-07T03:22:05.589Z,-2.44
2017-01-07T03:23:16.983Z,-2.42
2017-01-07T03:24:28.372Z,-2.36
2017-01-07T03:25:39.813Z,-2.42
2017-01-07T03:26:51.425Z,-2.42
2017-01-07T03:28:02.824Z,-2.4
2017-01-07T03:29:14.413Z,-2.34
2017-01-07T03:30:25.808Z,-2.39
2017-01-07T03:31:37.263Z,-2.39
2017-01-07T03:32:48.659Z,-2.44
2017-01-07T03:34:00.057Z,-2.4
2017-01-07T03:35:11.655Z,-2.42
2017-01-07T03:36:23.258Z,-2.34
2017-01-07T03:37:34.720Z,-2.42
2017-01-07T03:38:46.346Z,-2.32
2017-01-07T03:39:57.736Z,-2.27
2017-01-07T03:41:09.127Z,-2.34
2017-01-07T03:42:20.510Z,-2.24
2017-01-07T03:43:31.959Z,-2.3
2017-01-07T03:44:43.357Z,-2.23
2017-01-07T03:45:54.759Z,-2.15
2017-01-07T03:47:06.184Z,-2.14
2017-01-07T03:48:17.585Z,-2.17
2017-01-07T03:49:29.025Z,-2.15
2017-01-07T03:50:40.427Z,-2.17
2017-01-07T03:51:51.824Z,-2.05
2017-01-07T03:53:03.223Z,-2.07
2017-01-07T03:54:14.615Z,-2.14
2017-01-07T03:55:26.261Z,-2.06
2017-01-07T03:56:37.852Z,-2.07
2017-01-07T03:57:49.455Z,-2.02
2017-01-07T03:59:00.857Z,-2.03
2017-01-07T04:00:12.461Z,-2.14
2017-01-07T04:01:24.109Z,-2.15
2017-01-07T04:02:35.514Z,-2.12
2017-01-07T04:03:46.908Z,-2.14
2017-01-07T04:04:58.308Z,-2.17
2017-01-07T04:06:09.932Z,-2.1
2017-01-07T04:07:21.401Z,-2.14
2017-01-07T04:08:32.802Z,-2.07
2017-01-07T04:09:44.201Z,-2.07
2017-01-07T04:10:55.603Z,-2.09
2017-01-07T04:12:07.198Z,-2.02
2017-01-07T04:13:18.652Z,-2
2017-01-07T04:14:30.046Z,-2.09
2017-01-07T04:15:41.648Z,-2.18
2017-01-07T04:16:53.041Z,-2.14
2017-01-07T04:18:04.647Z,-2.05
2017-01-07T04:19:16.291Z,-1.99
2017-01-07T04:20:27.693Z,-2.02
2017-01-07T04:21:39.086Z,-2.14
2017-01-07T04:22:50.476Z,-2.15
2017-01-07T04:24:01.873Z,-2.18
2017-01-07T04:25:13.328Z,-2.15
2017-01-07T04:26:24.719Z,-2.12
2017-01-07T04:27:36.311Z,-2.1
2017-01-07T04:28:47.707Z,-2.05
2017-01-07T04:29:59.109Z,-2
2017-01-07T04:31:10.561Z,-2.18
2017-01-07T04:32:21.953Z,-2.12
2017-01-07T04:33:33.355Z,-2.09
2017-01-07T04:34:44.751Z,-2.15
2017-01-07T04:35:56.137Z,-2.25
2017-01-07T04:37:07.598Z,-2.21
2017-01-07T04:38:18.995Z,-2.23
2017-01-07T04:39:30.393Z,-2.28
2017-01-07T04:40:41.817Z,-2.28
2017-01-07T04:41:53.214Z,-2.24
2017-01-07T04:43:04.659Z,-2.42
2017-01-07T04:44:16.064Z,-2.4
2017-01-07T04:45:27.460Z,-2.42
2017-01-07T04:46:39.059Z,-2.43
2017-01-07T04:47:50.457Z,-2.36
2017-01-07T04:49:02.102Z,-2.32
2017-01-07T04:50:13.499Z,-2.39
2017-01-07T04:51:24.899Z,-2.46
2017-01-07T04:52:36.300Z,-2.46
2017-01-07T04:53:47.702Z,-2.64
2017-01-07T04:54:59.355Z,-2.57
2017-01-07T04:56:10.756Z,-2.53
2017-01-07T04:57:22.352Z,-2.62
2017-01-07T04:58:33.749Z,-2.49
2017-01-07T04:59:45.341Z,-2.53
2017-01-07T05:00:56.800Z,-2.53
2017-01-07T05:02:08.196Z,-2.54
2017-01-07T05:03:19.792Z,-2.64
2017-01-07T05:04:31.191Z,-2.6
2017-01-07T05:05:42.635Z,-2.61
2017-01-07T05:06:54.044Z,-2.55
2017-01-07T05:08:05.447Z,-2.61
2017-01-07T05:09:16.849Z,-2.58
2017-01-07T05:10:28.239Z,-2.61
2017-01-07T05:11:39.884Z,-2.58
2017-01-07T05:12:51.497Z,-2.65
2017-01-07T05:14:02.896Z,-2.67
2017-01-07T05:15:14.507Z,-2.7
2017-01-07T05:16:26.101Z,-2.75
2017-01-07T05:17:37.556Z,-2.7
2017-01-07T05:18:48.951Z,-2.73
2017-01-07T05:20:00.348Z,-2.78
2017-01-07T05:21:11.946Z,-2.81
2017-01-07T05:22:23.355Z,-2.75
2017-01-07T05:23:35.010Z,-2.76
2017-01-07T05:24:46.433Z,-2.67
2017-01-07T05:25:57.824Z,-2.73
2017-01-07T05:27:09.226Z,-2.76
2017-01-07T05:28:20.623Z,-2.81
2017-01-07T05:29:32.274Z,-2.73
2017-01-07T05:30:43.671Z,-2.76
2017-01-07T05:31:55.068Z,-2.81
2017-01-07T05:33:06.663Z,-2.85
2017-01-07T05:34:18.063Z,-2.72
2017-01-07T05:35:29.506Z,-2.76
2017-01-07T05:36:40.900Z,-2.76
2017-01-07T05:37:52.304Z,-2.75
2017-01-07T05:39:03.709Z,-2.85
2017-01-07T05:40:15.102Z,-2.73
2017-01-07T05:41:26.551Z,-2.75
2017-01-07T05:42:38.149Z,-2.73
2017-01-07T05:43:49.549Z,-2.72
2017-01-07T05:45:00.937Z,-2.7
2017-01-07T05:46:12.333Z,-2.73
2017-01-07T05:47:23.783Z,-2.76
2017-01-07T05:48:35.194Z,-2.75
2017-01-07T05:49:46.589Z,-2.7
2017-01-07T05:50:58.202Z,-2.62
2017-01-07T05:52:09.803Z,-2.67
2017-01-07T05:53:21.460Z,-2.76
2017-01-07T05:54:33.068Z,-2.76
2017-01-07T05:55:44.470Z,-2.7
2017-01-07T05:56:55.874Z,-2.76
2017-01-07T05:58:07.272Z,-2.75
2017-01-07T05:59:18.721Z,-2.78
2017-01-07T06:00:30.127Z,-2.75
2017-01-07T06:01:41.527Z,-2.76
2017-01-07T06:02:52.927Z,-2.78
2017-01-07T06:04:04.323Z,-2.75
2017-01-07T06:05:15.777Z,-2.81
2017-01-07T06:06:27.176Z,-2.81
2017-01-07T06:07:38.568Z,-2.79
2017-01-07T06:08:49.968Z,-2.75
2017-01-07T06:10:01.560Z,-2.82
2017-01-07T06:11:13.007Z,-2.65
2017-01-07T06:12:24.405Z,-2.68
2017-01-07T06:13:35.806Z,-2.76
2017-01-07T06:14:47.214Z,-2.67
2017-01-07T06:15:58.611Z,-2.57
2017-01-07T06:17:10.275Z,-2.61
2017-01-07T06:18:21.882Z,-2.67
2017-01-07T06:19:33.290Z,-2.7
2017-01-07T06:20:44.696Z,-2.67
2017-01-07T06:21:56.292Z,-2.78
2017-01-07T06:23:07.746Z,-2.75
2017-01-07T06:24:19.133Z,-2.79
2017-01-07T06:25:30.739Z,-2.78
2017-01-07T06:26:42.343Z,-2.83
2017-01-07T06:27:53.734Z,-2.82
2017-01-07T06:29:05.379Z,-2.81
2017-01-07T06:30:16.785Z,-2.9
2017-01-07T06:31:28.181Z,-2.9
2017-01-07T06:32:39.586Z,-2.82
2017-01-07T06:33:51.003Z,-2.76
2017-01-07T06:35:02.445Z,-2.82
2017-01-07T06:36:13.848Z,-2.79
2017-01-07T06:37:25.447Z,-2.83
2017-01-07T06:38:36.843Z,-2.7
2017-01-07T06:39:48.241Z,-2.73
2017-01-07T06:40:59.686Z,-2.6
2017-01-07T06:42:11.077Z,-2.55
2017-01-07T06:43:22.481Z,-2.5
2017-01-07T06:44:33.882Z,-2.58
2017-01-07T06:45:45.277Z,-2.57
2017-01-07T06:46:56.725Z,-2.61
2017-01-07T06:48:08.125Z,-2.67
2017-01-07T06:49:19.523Z,-2.75
2017-01-07T06:50:30.919Z,-2.67
2017-01-07T06:51:42.316Z,-2.79
2017-01-07T06:52:53.767Z,-2.81
2017-01-07T06:54:05.164Z,-2.78
2017-01-07T06:55:16.568Z,-2.75
2017-01-07T06:56:27.968Z,-2.68
2017-01-07T06:57:39.572Z,-2.65
2017-01-07T06:58:51.215Z,-2.58
2017-01-07T07:00:02.616Z,-2.64
2017-01-07T07:01:14.010Z,-2.75
2017-01-07T07:02:25.403Z,-2.65
2017-01-07T07:03:36.805Z,-2.7
2017-01-07T07:04:48.254Z,-2.76
2017-01-07T07:05:59.677Z,-2.7
2017-01-07T07:07:11.079Z,-2.7
2017-01-07T07:08:22.887Z,-2.75
2017-01-07T07:09:34.486Z,-2.78
2017-01-07T07:10:45.881Z,-2.75
2017-01-07T07:11:57.679Z,-2.7
2017-01-07T07:13:09.078Z,-2.72
2017-01-07T07:14:20.481Z,-2.79
2017-01-07T07:15:31.924Z,-2.79
2017-01-07T07:16:43.317Z,-2.76
2017-01-07T07:17:54.714Z,-2.64
2017-01-07T07:19:06.113Z,-2.7
2017-01-07T07:20:17.503Z,-2.6
2017-01-07T07:21:28.972Z,-2.7
2017-01-07T07:22:40.373Z,-2.78
2017-01-07T07:23:51.773Z,-2.67
2017-01-07T07:25:03.192Z,-2.58
2017-01-07T07:26:14.818Z,-2.57
2017-01-07T07:27:26.470Z,-2.55
2017-01-07T07:28:37.864Z,-2.6
2017-01-07T07:29:49.266Z,-2.6
2017-01-07T07:31:00.664Z,-2.57
2017-01-07T07:32:12.066Z,-2.55
2017-01-07T07:33:23.509Z,-2.57
2017-01-07T07:34:34.903Z,-2.6
2017-01-07T07:35:46.506Z,-2.61
2017-01-07T07:36:58.103Z,-2.57
2017-01-07T07:38:09.507Z,-2.75
2017-01-07T07:39:21.163Z,-2.75
2017-01-07T07:40:32.556Z,-2.79
2017-01-07T07:41:43.954Z,-2.7
2017-01-07T07:42:55.552Z,-2.73
2017-01-07T07:44:06.947Z,-2.73
2017-01-07T07:45:18.390Z,-2.75
2017-01-07T07:46:29.790Z,-2.73
2017-01-07T07:47:41.185Z,-2.73
2017-01-07T07:48:52.583Z,-2.75
2017-01-07T07:50:03.980Z,-2.68
2017-01-07T07:51:15.429Z,-2.68
2017-01-07T07:52:26.834Z,-2.58
2017-01-07T07:53:38.229Z,-2.58
2017-01-07T07:54:49.629Z,-2.61
2017-01-07T07:56:01.021Z,-2.6
2017-01-07T07:57:12.469Z,-2.58
2017-01-07T07:58:23.867Z,-2.6
2017-01-07T07:59:35.271Z,-2.62
2017-01-07T08:00:46.681Z,-2.58
2017-01-07T08:01:58.076Z,-2.55
2017-01-07T08:03:09.528Z,-2.58
2017-01-07T08:04:20.941Z,-2.61
2017-01-07T08:05:32.337Z,-2.61
2017-01-07T08:06:43.736Z,-2.6
2017-01-07T08:07:55.125Z,-2.54
2017-01-07T08:09:06.588Z,-2.55
2017-01-07T08:10:17.982Z,-2.58
2017-01-07T08:11:29.378Z,-2.62
2017-01-07T08:12:40.974Z,-2.55
2017-01-07T08:13:52.377Z,-2.58
2017-01-07T08:15:04.230Z,-2.64
2017-01-07T08:16:15.628Z,-2.55
2017-01-07T08:17:27.038Z,-2.57
2017-01-07T08:18:38.636Z,-2.61
2017-01-07T08:19:50.034Z,-2.53
2017-01-07T08:21:01.486Z,-2.65
2017-01-07T08:22:12.882Z,-2.5
2017-01-07T08:23:24.274Z,-2.58
2017-01-07T08:24:35.670Z,-2.61
2017-01-07T08:25:47.077Z,-2.5
2017-01-07T08:26:58.479Z,-2.54
2017-01-07T08:28:10.110Z,-2.54
2017-01-07T08:29:21.512Z,-2.65
2017-01-07T08:30:32.905Z,-2.5
2017-01-07T08:31:44.347Z,-2.55
2017-01-07T08:32:55.772Z,-2.49
2017-01-07T08:34:07.368Z,-2.58
2017-01-07T08:35:18.769Z,-2.57
2017-01-07T08:36:30.161Z,-2.62
2017-01-07T08:37:41.806Z,-2.61
2017-01-07T08:38:53.236Z,-2.47
2017-01-07T08:40:04.696Z,-2.53
2017-01-07T08:41:16.297Z,-2.57
2017-01-07T08:42:27.694Z,-2.57
2017-01-07T08:43:39.143Z,-2.49
2017-01-07T08:44:50.535Z,-2.57
2017-01-07T08:46:01.939Z,-2.49
2017-01-07T08:47:13.536Z,-2.54
2017-01-07T08:48:24.937Z,-2.61
2017-01-07T08:49:36.385Z,-2.43
2017-01-07T08:50:47.776Z,-2.47
2017-01-07T08:51:59.161Z,-2.5
2017-01-07T08:53:10.558Z,-2.46
2017-01-07T08:54:21.962Z,-2.36
2017-01-07T08:55:33.408Z,-2.3
2017-01-07T08:56:44.794Z,-2.24
2017-01-07T08:57:56.190Z,-2.21
2017-01-07T08:59:07.583Z,-2.21
2017-01-07T09:00:18.975Z,-2.23
2017-01-07T09:01:30.433Z,-2.25
2017-01-07T09:02:42.234Z,-2.21
2017-01-07T09:03:53.622Z,-2.24
2017-01-07T09:05:05.017Z,-2.28
2017-01-07T09:06:16.411Z,-2.21
2017-01-07T09:07:28.065Z,-2.23
2017-01-07T09:08:39.463Z,-2.27
2017-01-07T09:09:50.860Z,-2.17
2017-01-07T09:11:02.452Z,-2.1
2017-01-07T09:12:13.855Z,-1.99
2017-01-07T09:13:25.301Z,-2.1
2017-01-07T09:14:36.692Z,-1.99
2017-01-07T09:15:48.099Z,-1.97
2017-01-07T09:16:59.507Z,-1.97
2017-01-07T09:18:10.896Z,-1.99
2017-01-07T09:19:22.537Z,-1.92
2017-01-07T09:20:34.140Z,-1.99
2017-01-07T09:21:45.530Z,-1.99
2017-01-07T09:22:57.120Z,-1.97
2017-01-07T09:24:08.719Z,-2.1
2017-01-07T09:25:20.163Z,-2.15
2017-01-07T09:26:31.790Z,-2.07
2017-01-07T09:27:43.381Z,-2.03
2017-01-07T09:28:54.777Z,-2.1
2017-01-07T09:30:06.377Z,-2.05
2017-01-07T09:31:17.830Z,-1.94
2017-01-07T09:32:29.221Z,-1.96
2017-01-07T09:33:40.625Z,-1.89
2017-01-07T09:34:52.025Z,-1.92
2017-01-07T09:36:03.425Z,-1.86
2017-01-07T09:37:14.871Z,-1.78
2017-01-07T09:38:26.267Z,-1.67
2017-01-07T09:39:37.890Z,-1.7
2017-01-07T09:40:49.693Z,-1.67
2017-01-07T09:42:01.090Z,-1.61
2017-01-07T09:43:12.741Z,-1.63
2017-01-07T09:44:24.164Z,-1.63
2017-01-07T09:45:35.558Z,-1.66
2017-01-07T09:46:46.960Z,-1.67
2017-01-07T09:47:58.349Z,-1.7
2017-01-07T09:49:09.804Z,-1.67
2017-01-07T09:50:21.204Z,-1.68
2017-01-07T09:51:32.600Z,-1.73
2017-01-07T09:52:44.024Z,-1.82
2017-01-07T09:53:55.432Z,-1.68
2017-01-07T09:55:06.913Z,-1.78
2017-01-07T09:56:18.521Z,-1.68
2017-01-07T09:57:29.922Z,-1.7
2017-01-07T09:58:41.312Z,-1.66
2017-01-07T09:59:52.709Z,-1.56
2017-01-07T10:01:04.154Z,-1.58
2017-01-07T10:02:15.762Z,-1.55
2017-01-07T10:03:27.356Z,-1.56
2017-01-07T10:04:38.957Z,-1.53
2017-01-07T10:05:50.361Z,-1.58
2017-01-07T10:07:02.019Z,-1.43
2017-01-07T10:08:13.406Z,-1.6
2017-01-07T10:09:24.796Z,-1.55
2017-01-07T10:10:36.201Z,-1.5
2017-01-07T10:11:47.606Z,-1.67
2017-01-07T10:12:59.051Z,-1.58
2017-01-07T10:14:10.472Z,-1.52
2017-01-07T10:15:22.073Z,-1.63
2017-01-07T10:16:33.476Z,-1.6
2017-01-07T10:17:44.870Z,-1.58
2017-01-07T10:18:56.314Z,-1.42
2017-01-07T10:20:07.914Z,-1.58
2017-01-07T10:21:19.326Z,-1.53
2017-01-07T10:22:30.716Z,-1.45
2017-01-07T10:23:42.308Z,-1.48
2017-01-07T10:24:53.774Z,-1.52
2017-01-07T10:26:05.171Z,-1.52
2017-01-07T10:27:16.586Z,-1.45
2017-01-07T10:28:27.989Z,-1.45
2017-01-07T10:29:39.393Z,-1.35
2017-01-07T10:30:51.048Z,-1.38
2017-01-07T10:32:02.447Z,-1.28
2017-01-07T10:33:13.842Z,-1.34
2017-01-07T10:34:25.234Z,-1.31
2017-01-07T10:35:36.633Z,-1.4
2017-01-07T10:36:48.084Z,-1.35
2017-01-07T10:37:59.676Z,-1.34
2017-01-07T10:39:11.267Z,-1.32
2017-01-07T10:40:22.668Z,-1.31
2017-01-07T10:41:34.073Z,-1.35
2017-01-07T10:42:45.716Z,-1.27
2017-01-07T10:43:57.119Z,-1.28
2017-01-07T10:45:08.524Z,-1.14
2017-01-07T10:46:19.932Z,-1.16
2017-01-07T10:47:31.333Z,-1.14
2017-01-07T10:48:42.787Z,-1.16
2017-01-07T10:49:54.184Z,-1.17
2017-01-07T10:51:05.579Z,-1.13
2017-01-07T10:52:16.981Z,-1.22
2017-01-07T10:53:28.381Z,-1.09
2017-01-07T10:54:40.037Z,-1.14
2017-01-07T10:55:51.446Z,-1.1
2017-01-07T10:57:02.838Z,-0.98
2017-01-07T10:58:14.240Z,-0.95
2017-01-07T10:59:25.829Z,-0.99
2017-01-07T11:00:37.275Z,-1.01
2017-01-07T11:01:48.680Z,-1.01
2017-01-07T11:03:00.273Z,-0.91
2017-01-07T11:04:11.670Z,-1.11
2017-01-07T11:05:23.070Z,-0.96
2017-01-07T11:06:34.564Z,-0.91
2017-01-07T11:07:45.960Z,-0.91
2017-01-07T11:08:57.564Z,-0.76
2017-01-07T11:10:08.961Z,-0.66
2017-01-07T11:11:20.361Z,-0.67
2017-01-07T11:12:31.807Z,-0.87
2017-01-07T11:13:43.198Z,-0.79
2017-01-07T11:14:54.804Z,-0.85
2017-01-07T11:16:06.228Z,-0.74
2017-01-07T11:17:17.660Z,-0.67
2017-01-07T11:18:29.112Z,-0.72
2017-01-07T11:19:40.511Z,-0.77
2017-01-07T11:20:52.116Z,-0.79
2017-01-07T11:22:03.510Z,-0.77
2017-01-07T11:23:14.909Z,-0.77
2017-01-07T11:24:26.369Z,-0.64
2017-01-07T11:25:37.776Z,-0.74
2017-01-07T11:26:49.177Z,-0.79
2017-01-07T11:28:00.780Z,-0.82
2017-01-07T11:29:12.183Z,-0.69
2017-01-07T11:30:23.588Z,-0.8
2017-01-07T11:31:35.186Z,-0.79
2017-01-07T11:32:46.789Z,-0.96
2017-01-07T11:33:58.413Z,-0.98
2017-01-07T11:35:09.856Z,-0.93
2017-01-07T11:36:21.286Z,-0.92
2017-01-07T11:37:32.680Z,-0.96
2017-01-07T11:38:44.088Z,-0.91
2017-01-07T11:39:55.688Z,-0.87
2017-01-07T11:41:07.345Z,-0.95
2017-01-07T11:42:18.742Z,-0.79
2017-01-07T11:43:30.145Z,-0.72
2017-01-07T11:44:41.539Z,-0.84
2017-01-07T11:45:52.937Z,-0.93
2017-01-07T11:47:04.384Z,-0.92
2017-01-07T11:48:15.818Z,-0.91
2017-01-07T11:49:27.215Z,-0.92
2017-01-07T11:50:38.812Z,-0.91
2017-01-07T11:51:50.213Z,-0.99
2017-01-07T11:53:01.659Z,-0.84
2017-01-07T11:54:13.057Z,-0.8
2017-01-07T11:55:24.466Z,-0.76
2017-01-07T11:56:35.868Z,-0.77
2017-01-07T11:57:47.264Z,-0.76
2017-01-07T11:58:58.718Z,-0.72
2017-01-07T12:00:10.145Z,-0.66
2017-01-07T12:01:21.542Z,-0.74
2017-01-07T12:02:32.933Z,-0.76
2017-01-07T12:03:44.536Z,-0.69
2017-01-07T12:04:56.185Z,-0.66
2017-01-07T12:06:07.585Z,-0.58
2017-01-07T12:07:18.984Z,-0.55
2017-01-07T12:08:30.408Z,-0.55
2017-01-07T12:09:41.806Z,-0.56
2017-01-07T12:10:53.254Z,-0.54
2017-01-07T12:12:04.646Z,-0.7
2017-01-07T12:13:16.249Z,-0.64
2017-01-07T12:14:27.638Z,-0.7
2017-01-07T12:15:39.033Z,-0.49
2017-01-07T12:16:50.491Z,-0.51
2017-01-07T12:18:01.890Z,-0.38
2017-01-07T12:19:13.280Z,-0.51
2017-01-07T12:20:24.683Z,-0.58
2017-01-07T12:21:36.493Z,-0.54
2017-01-07T12:22:47.935Z,-0.58
2017-01-07T12:23:59.343Z,-0.55
2017-01-07T12:25:10.733Z,-0.55
2017-01-07T12:26:22.126Z,-0.7
2017-01-07T12:27:33.524Z,-0.73
2017-01-07T12:28:44.975Z,-0.74
2017-01-07T12:29:56.370Z,-0.69
2017-01-07T12:31:07.771Z,-0.64
2017-01-07T12:32:19.173Z,-0.62
2017-01-07T12:33:30.581Z,-0.48
2017-01-07T12:34:42.033Z,-0.52
2017-01-07T12:35:53.432Z,-0.46
2017-01-07T12:37:04.828Z,-0.49
2017-01-07T12:38:16.225Z,-0.46
2017-01-07T12:39:27.630Z,-0.45
2017-01-07T12:40:39.074Z,-0.46
2017-01-07T12:41:50.668Z,-0.66
2017-01-07T12:43:02.066Z,-0.69
2017-01-07T12:44:13.466Z,-0.7
2017-01-07T12:45:24.909Z,-0.72
2017-01-07T12:46:36.318Z,-0.72
2017-01-07T12:47:47.719Z,-0.66
2017-01-07T12:48:59.113Z,-0.64
2017-01-07T12:50:10.506Z,-0.59
2017-01-07T12:51:22.146Z,-0.56
2017-01-07T12:52:33.553Z,-0.64
2017-01-07T12:53:44.957Z,-0.73
2017-01-07T12:54:56.359Z,-0.67
2017-01-07T12:56:07.761Z,-0.62
2017-01-07T12:57:19.230Z,-0.67
2017-01-07T12:58:30.645Z,-0.55
2017-01-07T12:59:42.043Z,-0.59
2017-01-07T13:00:53.430Z,-0.56
2017-01-07T13:02:04.830Z,-0.56
2017-01-07T13:03:16.272Z,-0.55
2017-01-07T13:04:27.681Z,-0.52
2017-01-07T13:05:39.087Z,-0.58
2017-01-07T13:06:50.480Z,-0.66
2017-01-07T13:08:01.884Z,-0.67
2017-01-07T13:09:13.333Z,-0.7
2017-01-07T13:10:24.931Z,-0.64
2017-01-07T13:11:36.328Z,-0.66
2017-01-07T13:12:47.734Z,-0.67
2017-01-07T13:13:59.131Z,-0.67
2017-01-07T13:15:10.584Z,-0.67
2017-01-07T13:16:22.194Z,-0.62
2017-01-07T13:17:33.816Z,-0.62
2017-01-07T13:18:45.220Z,-0.73
2017-01-07T13:19:56.620Z,-0.8
2017-01-07T13:21:08.066Z,-0.73
2017-01-07T13:22:19.661Z,-0.69
2017-01-07T13:23:31.060Z,-0.64
2017-01-07T13:24:42.482Z,-0.59
2017-01-07T13:25:53.879Z,-0.56
2017-01-07T13:27:05.332Z,-0.64
2017-01-07T13:28:16.726Z,-0.66
2017-01-07T13:29:28.119Z,-0.59
2017-01-07T13:30:39.509Z,-0.72
2017-01-07T13:31:50.912Z,-0.59
2017-01-07T13:33:02.562Z,-0.56
2017-01-07T13:34:13.974Z,-0.45
2017-01-07T13:35:25.374Z,-0.38
2017-01-07T13:36:36.768Z,-0.37
2017-01-07T13:37:48.165Z,-0.37
2017-01-07T13:38:59.615Z,-0.31
2017-01-07T13:40:11.040Z,-0.36
2017-01-07T13:41:22.443Z,-0.33
2017-01-07T13:42:33.839Z,-0.31
2017-01-07T13:43:45.236Z,-0.3
2017-01-07T13:44:56.679Z,-0.28
2017-01-07T13:46:08.276Z,-0.28
2017-01-07T13:47:19.671Z,-0.31
2017-01-07T13:48:31.064Z,-0.41
2017-01-07T13:49:42.461Z,-0.46
2017-01-07T13:50:54.060Z,-0.43
2017-01-07T13:52:05.667Z,-0.46
2017-01-07T13:53:17.069Z,-0.51
2017-01-07T13:54:28.464Z,-0.38
2017-01-07T13:55:39.916Z,-0.37
2017-01-07T13:56:51.317Z,-0.27
2017-01-07T13:58:02.708Z,-0.3
2017-01-07T13:59:14.106Z,-0.3
2017-01-07T14:00:25.506Z,-0.31
2017-01-07T14:01:36.953Z,-0.27
2017-01-07T14:02:48.546Z,-0.3
2017-01-07T14:03:59.940Z,-0.34
2017-01-07T14:05:11.341Z,-0.36
2017-01-07T14:06:22.733Z,-0.22
2017-01-07T14:07:34.188Z,-0.2
2017-01-07T14:08:45.777Z,-0.16
2017-01-07T14:09:57.203Z,-0.19
2017-01-07T14:11:08.804Z,-0.23
2017-01-07T14:12:20.206Z,-0.2
2017-01-07T14:13:31.661Z,-0.15
2017-01-07T14:14:43.070Z,-0.19
2017-01-07T14:15:54.673Z,-0.23
2017-01-07T14:17:06.279Z,-0.05
2017-01-07T14:18:17.687Z,-0.25
2017-01-07T14:19:29.134Z,-0.27
2017-01-07T14:20:40.738Z,-0.4
2017-01-07T14:21:52.134Z,-0.37
2017-01-07T14:23:03.532Z,-0.38
2017-01-07T14:24:14.929Z,-0.19
2017-01-07T14:25:26.374Z,-0.25
2017-01-07T14:26:37.779Z,-0.27
2017-01-07T14:27:49.182Z,-0.2
2017-01-07T14:29:00.579Z,-0.19
2017-01-07T14:30:12.005Z,-0.27
2017-01-07T14:31:23.446Z,-0.23
2017-01-07T14:32:34.849Z,-0.33
2017-01-07T14:33:46.247Z,-0.18
2017-01-07T14:34:57.640Z,-0.25
2017-01-07T14:36:09.036Z,-0.15
2017-01-07T14:37:20.489Z,-0.12
2017-01-07T14:38:31.882Z,-0.18
2017-01-07T14:39:43.275Z,-0.25
2017-01-07T14:40:54.679Z,-0.18
2017-01-07T14:42:06.077Z,-0.16
2017-01-07T14:43:17.542Z,-0.02
2017-01-07T14:44:28.938Z,-0.07
2017-01-07T14:45:40.337Z,-0.18
2017-01-07T14:46:51.740Z,-0.23
2017-01-07T14:48:03.128Z,-0.13
2017-01-07T14:49:14.789Z,-0.22
2017-01-07T14:50:26.201Z,-0.23
2017-01-07T14:51:37.592Z,-0.31
2017-01-07T14:52:48.996Z,-0.31
2017-01-07T14:54:00.396Z,-0.27
2017-01-07T14:55:11.849Z,-0.28
2017-01-07T14:56:23.248Z,-0.22
2017-01-07T14:57:34.646Z,-0.13
2017-01-07T14:58:46.244Z,-0.25
2017-01-07T14:59:57.644Z,-0.31
2017-01-07T15:01:09.089Z,-0.18
2017-01-07T15:02:20.697Z,-0.23
2017-01-07T15:03:32.084Z,-0.23
2017-01-07T15:04:43.483Z,-0.4
2017-01-07T15:05:54.914Z,-0.28
2017-01-07T15:07:06.362Z,-0.37
2017-01-07T15:08:17.761Z,-0.45
2017-01-07T15:09:29.354Z,-0.37
2017-01-07T15:10:40.984Z,-0.34
2017-01-07T15:11:52.586Z,-0.34
2017-01-07T15:13:04.039Z,-0.22
2017-01-07T15:14:15.438Z,-0.19
2017-01-07T15:15:26.833Z,-0.19
2017-01-07T15:16:38.227Z,-0.22
2017-01-07T15:17:49.631Z,-0.3
2017-01-07T15:19:01.081Z,-0.41
2017-01-07T15:20:12.478Z,-0.4
2017-01-07T15:21:23.880Z,-0.3
2017-01-07T15:22:35.278Z,-0.25
2017-01-07T15:23:46.678Z,-0.23